Time;durP1;ratioP1;P1;durP2;ratioP2;P2;SDS_P1;SDS_P2;PMS_P1;PMS_P2;Temp;Humidity;BMP_temperature;BMP_pressure;BME280_temperature;BME280_humidity;BME280_pressure;Samples;Min_cycle;Max_cycle;Signal;HPM_P1;HPM_P2
2022/08/20 06:37:35;;;;;;;12.53;11.53;;;27.10;89.40;;;;;;4890962;29;20457;-81
2022/08/20 06:40:05;;;;;;;15.40;14.00;;;27.10;89.80;;;;;;4881391;29;20493;-81
2022/08/20 06:42:32;;;;;;;13.20;12.20;;;27.00;89.00;;;;;;4881089;29;20505;-82
2022/08/20 06:44:59;;;;;;;15.13;13.93;;;27.00;89.10;;;;;;4881261;29;20540;-83
2022/08/20 06:47:26;;;;;;;14.00;12.90;;;26.80;89.50;;;;;;4882041;29;20472;-81
2022/08/20 06:49:52;;;;;;;13.37;12.07;;;26.80;89.60;;;;;;4910968;29;20574;-91
2022/08/20 06:52:19;;;;;;;14.17;12.80;;;26.80;89.70;;;;;;4918628;29;20452;-81
2022/08/20 06:54:47;;;;;;;14.50;13.30;;;26.80;90.10;;;;;;4918863;29;20459;-82
2022/08/20 06:57:14;;;;;;;13.60;12.50;;;26.80;90.00;;;;;;4918486;29;20527;-82
2022/08/20 06:59:41;;;;;;;13.30;12.30;;;26.80;90.10;;;;;;4918520;29;20947;-81
2022/08/20 07:02:08;;;;;;;14.00;12.90;;;26.80;90.10;;;;;;4918589;29;20469;-81
2022/08/20 07:04:35;;;;;;;14.83;13.47;;;26.70;90.20;;;;;;4918517;29;20455;-82
2022/08/20 07:07:03;;;;;;;13.60;12.47;;;26.70;90.30;;;;;;4918469;29;20444;-81
2022/08/20 07:09:29;;;;;;;13.53;12.40;;;26.70;90.40;;;;;;4918440;29;20523;-84
2022/08/20 07:11:57;;;;;;;13.47;12.10;;;26.70;90.60;;;;;;4918677;29;20539;-82
2022/08/20 07:14:24;;;;;;;13.67;12.37;;;26.70;90.70;;;;;;4918478;29;20519;-82
2022/08/20 07:16:51;;;;;;;13.87;12.67;;;26.70;90.70;;;;;;4917545;29;20448;-82
2022/08/20 07:19:18;;;;;;;12.47;11.37;;;26.70;90.70;;;;;;4918170;29;20492;-82
2022/08/20 07:21:46;;;;;;;12.73;11.83;;;26.70;90.70;;;;;;4918163;29;20497;-88
2022/08/20 07:24:13;;;;;;;13.00;11.80;;;26.70;90.60;;;;;;4918265;29;20456;-82
2022/08/20 07:26:40;;;;;;;11.77;10.87;;;26.60;90.80;;;;;;4918444;29;20452;-84
2022/08/20 07:29:08;;;;;;;12.40;11.33;;;26.60;90.80;;;;;;4918237;29;20785;-82
2022/08/20 07:34:21;;;;;;;13.63;12.43;;;26.60;90.80;;;;;;4912041;29;20457;-82
2022/08/20 07:36:50;;;;;;;12.17;11.10;;;26.70;90.70;;;;;;4906896;29;20446;-82
2022/08/20 07:42:39;;;;;;;11.97;11.10;;;26.70;90.50;;;;;;4896962;29;20467;-84
2022/08/20 07:45:09;;;;;;;12.80;11.70;;;26.60;90.60;;;;;;4908483;29;20863;-82
2022/08/20 07:47:38;;;;;;;12.40;11.20;;;26.70;90.60;;;;;;4909372;29;20440;-83
2022/08/20 07:50:06;;;;;;;12.27;11.07;;;26.70;90.70;;;;;;4904055;29;20487;-82
2022/08/20 07:52:34;;;;;;;11.90;10.90;;;26.60;90.90;;;;;;4911740;29;20440;-83
2022/08/20 07:55:01;;;;;;;10.87;9.97;;;26.60;91.00;;;;;;4917770;29;20565;-82
2022/08/20 07:57:27;;;;;;;14.53;11.50;;;26.70;90.70;;;;;;4931266;29;20474;-87
2022/08/20 07:59:56;;;;;;;12.70;11.70;;;26.70;90.60;;;;;;4927941;29;21011;-83
2022/08/20 08:02:24;;;;;;;11.17;10.27;;;26.70;90.70;;;;;;4924816;29;20444;-83
2022/08/20 08:04:51;;;;;;;12.03;11.03;;;26.80;90.70;;;;;;4917678;29;20937;-83
2022/08/20 08:07:18;;;;;;;11.73;10.63;;;26.70;90.50;;;;;;4917086;29;20452;-82
2022/08/20 08:09:47;;;;;;;10.63;9.70;;;26.70;90.40;;;;;;4918183;29;20448;-84
2022/08/20 08:12:14;;;;;;;11.50;10.57;;;26.80;90.90;;;;;;4917731;29;20452;-91
2022/08/20 08:14:44;;;;;;;11.90;10.70;;;26.80;90.80;;;;;;4915542;29;20457;-82
2022/08/20 08:17:12;;;;;;;12.50;11.50;;;26.80;91.00;;;;;;4899530;29;20447;-83
2022/08/20 08:19:47;;;;;;;10.63;9.83;;;26.80;91.50;;;;;;4901988;29;20456;-83
2022/08/20 08:22:16;;;;;;;10.27;9.40;;;26.90;90.70;;;;;;4917668;29;20542;-83
2022/08/20 08:24:45;;;;;;;11.00;10.20;;;26.90;90.60;;;;;;4916433;29;20451;-83
2022/08/20 08:27:13;;;;;;;9.17;8.57;;;27.00;90.50;;;;;;4920198;29;20456;-83
2022/08/20 08:29:40;;;;;;;10.10;9.23;;;27.00;90.40;;;;;;4921018;29;20453;-83
2022/08/20 08:32:07;;;;;;;8.43;7.93;;;27.00;90.40;;;;;;4930486;23;20862;-83
2022/08/20 08:34:35;;;;;;;8.60;7.80;;;27.10;90.40;;;;;;4943080;29;20816;-83
2022/08/20 08:37:04;;;;;;;7.30;6.80;;;27.20;90.40;;;;;;4948652;29;20462;-86
2022/08/20 08:42:20;;;;;;;5.60;5.23;;;27.30;90.10;;;;;;2387756;23;20491;-84
2022/08/20 08:44:49;;;;;;;4.97;4.67;;;27.40;89.50;;;;;;4947420;23;20997;-83
2022/08/20 08:47:21;;;;;;;3.90;3.70;;;27.40;88.40;;;;;;4941494;29;20483;-83
2022/08/20 08:49:48;;;;;;;3.63;3.43;;;27.50;87.90;;;;;;4940033;29;20443;-84
2022/08/20 08:52:22;;;;;;;3.90;3.27;;;27.50;87.30;;;;;;4938830;29;20450;-84
2022/08/20 08:54:53;;;;;;;3.43;3.13;;;27.50;86.80;;;;;;4941050;29;20443;-94
2022/08/20 08:57:20;;;;;;;3.70;3.50;;;27.50;86.60;;;;;;4940766;29;20529;-82
2022/08/20 08:59:53;;;;;;;3.53;3.33;;;27.60;86.50;;;;;;4938666;29;20546;-84
2022/08/20 09:02:24;;;;;;;3.30;3.10;;;27.60;86.30;;;;;;4942071;29;20503;-96
2022/08/20 09:04:54;;;;;;;3.53;3.17;;;27.60;86.10;;;;;;4959548;23;20498;-84
2022/08/20 09:07:24;;;;;;;4.07;3.67;;;27.60;85.80;;;;;;4955941;29;20443;-85
2022/08/20 09:09:52;;;;;;;4.00;3.70;;;27.70;85.60;;;;;;4951375;29;20526;-85
2022/08/20 09:12:21;;;;;;;4.23;3.30;;;27.70;85.40;;;;;;4936328;29;20977;-85
2022/08/20 09:14:49;;;;;;;3.43;3.13;;;27.70;85.20;;;;;;4936023;29;20439;-86
2022/08/20 09:17:17;;;;;;;3.77;3.43;;;27.70;85.00;;;;;;4932639;29;20558;-85
2022/08/20 09:19:44;;;;;;;3.90;3.60;;;27.80;85.00;;;;;;4918925;29;20452;-83
2022/08/20 09:22:13;;;;;;;3.60;3.40;;;27.70;84.70;;;;;;4931625;29;20487;-83
2022/08/20 09:24:42;;;;;;;3.30;3.10;;;27.80;84.80;;;;;;4940262;29;20542;-83
2022/08/20 09:27:10;;;;;;;3.03;2.83;;;27.80;85.60;;;;;;4939715;29;20497;-83
2022/08/20 09:29:37;;;;;;;2.97;2.77;;;27.80;84.50;;;;;;4941207;29;20870;-83
2022/08/20 09:32:06;;;;;;;3.30;3.10;;;27.80;84.30;;;;;;4966707;23;20462;-83
2022/08/20 09:34:35;;;;;;;3.53;3.23;;;27.80;84.30;;;;;;4957274;29;21005;-83
2022/08/20 09:37:02;;;;;;;3.33;3.13;;;27.80;84.30;;;;;;4956816;29;20438;-82
2022/08/20 09:39:30;;;;;;;3.77;3.47;;;27.80;84.20;;;;;;4959011;28;20485;-92
2022/08/20 10:28:53;;;;;;;22.00;14.97;;;27.80;84.20;;;;;;4945846;23;20565;-89
2022/08/20 10:31:20;;;;;;;21.10;16.17;;;27.80;84.40;;;;;;4945702;29;20458;-85
2022/08/20 10:33:47;;;;;;;22.83;15.70;;;27.80;84.30;;;;;;4939976;29;20518;-87
2022/08/20 10:36:17;;;;;;;22.40;16.40;;;27.80;84.10;;;;;;4941961;29;20451;-85
2022/08/20 10:38:44;;;;;;;17.60;14.60;;;27.90;84.10;;;;;;4945935;29;20475;-85
2022/08/20 10:41:11;;;;;;;17.47;14.20;;;27.90;84.10;;;;;;4943035;29;21037;-84
2022/08/20 10:43:38;;;;;;;26.17;17.70;;;27.90;83.90;;;;;;4939129;29;20445;-84
2022/08/20 10:46:07;;;;;;;35.50;22.67;;;27.90;83.90;;;;;;4942243;29;20542;-85
2022/08/20 10:48:33;;;;;;;41.30;21.30;;;27.90;83.70;;;;;;4928668;29;20466;-85
2022/08/20 10:51:00;;;;;;;26.03;18.67;;;27.90;83.70;;;;;;4920743;29;20556;-84
2022/08/20 10:53:27;;;;;;;27.47;19.80;;;27.90;83.60;;;;;;4920677;29;20551;-84
2022/08/20 10:55:55;;;;;;;23.73;18.30;;;27.90;83.50;;;;;;4926031;29;20494;-84
2022/08/20 10:58:23;;;;;;;19.87;16.23;;;27.90;83.40;;;;;;4922814;29;20455;-85
2022/08/20 11:00:50;;;;;;;21.30;16.40;;;27.90;83.40;;;;;;4919024;29;20742;-85
2022/08/20 11:03:19;;;;;;;28.47;18.70;;;27.90;83.40;;;;;;4917982;29;20482;-84
2022/08/20 11:05:46;;;;;;;19.70;15.00;;;27.90;83.30;;;;;;4917985;29;20448;-87
2022/08/20 11:08:13;;;;;;;21.57;15.50;;;27.90;83.30;;;;;;4919535;29;20481;-81
2022/08/20 11:10:40;;;;;;;17.50;14.70;;;27.90;83.50;;;;;;4918264;29;20527;-81
2022/08/20 11:13:08;;;;;;;23.33;15.73;;;27.90;83.40;;;;;;4918433;29;20962;-82
2022/08/20 11:15:38;;;;;;;15.13;13.23;;;27.90;83.30;;;;;;4919266;29;20464;-82
2022/08/20 11:18:06;;;;;;;14.43;12.90;;;27.90;83.30;;;;;;4920127;29;20478;-82
2022/08/20 11:20:34;;;;;;;14.43;13.03;;;27.90;83.30;;;;;;4928754;29;20464;-82
2022/08/20 11:23:01;;;;;;;13.20;11.67;;;27.80;83.10;;;;;;4934328;29;20464;-82
2022/08/20 11:28:05;;;;;;;11.93;10.70;;;27.90;82.90;;;;;;2188838;23;20502;-82
2022/08/20 11:30:35;;;;;;;14.00;12.63;;;27.90;82.80;;;;;;4963713;23;20573;-82
2022/08/20 11:33:02;;;;;;;13.07;11.70;;;27.90;82.80;;;;;;4965158;29;20865;-82
2022/08/20 11:35:32;;;;;;;11.37;10.30;;;27.90;82.80;;;;;;4955708;29;20868;-82
2022/08/20 11:38:01;;;;;;;12.80;10.57;;;27.90;82.60;;;;;;4955982;29;20545;-83
2022/08/20 11:40:30;;;;;;;12.07;11.07;;;27.90;82.30;;;;;;4955158;29;20545;-82
2022/08/20 11:42:57;;;;;;;11.50;10.37;;;27.90;82.30;;;;;;4958628;29;20486;-83
2022/08/20 11:50:48;;;;;;;10.40;9.40;;;27.90;81.30;;;;;;4980161;23;20576;-83
2022/08/20 11:53:16;;;;;;;10.77;9.67;;;27.80;81.50;;;;;;5050519;23;20859;-82
2022/08/20 11:55:44;;;;;;;9.50;8.73;;;27.90;81.50;;;;;;4936407;29;20522;-82
2022/08/20 11:58:11;;;;;;;11.33;9.10;;;27.90;81.40;;;;;;4936714;29;20450;-82
2022/08/20 12:00:38;;;;;;;10.47;9.47;;;27.90;81.40;;;;;;4936586;29;20446;-82
2022/08/20 12:03:07;;;;;;;9.57;8.87;;;27.90;81.40;;;;;;4936448;29;20495;-82
2022/08/20 12:05:33;;;;;;;9.30;8.60;;;27.90;81.40;;;;;;4939883;29;20534;-82
2022/08/20 12:08:01;;;;;;;8.57;7.77;;;27.90;81.40;;;;;;4939909;29;20969;-82
2022/08/20 12:10:30;;;;;;;8.83;8.00;;;27.90;81.40;;;;;;4938586;29;20442;-82
2022/08/20 12:12:57;;;;;;;7.90;7.30;;;27.90;81.40;;;;;;4939287;29;20865;-82
2022/08/20 12:15:25;;;;;;;8.30;7.70;;;27.90;81.40;;;;;;4947152;23;21239;-82
2022/08/20 12:17:52;;;;;;;7.80;7.20;;;27.90;81.40;;;;;;4938543;29;20501;-82
2022/08/20 12:20:19;;;;;;;7.20;6.70;;;27.90;81.50;;;;;;4936371;29;20542;-82
2022/08/20 12:22:46;;;;;;;8.00;7.40;;;27.90;81.50;;;;;;4921995;29;20850;-80
2022/08/20 12:25:13;;;;;;;7.20;6.60;;;27.90;81.50;;;;;;4938028;29;20545;-80
2022/08/20 12:27:42;;;;;;;8.23;7.53;;;27.90;81.40;;;;;;4947636;23;20563;-81
2022/08/20 12:30:12;;;;;;;8.20;7.70;;;27.90;81.50;;;;;;4937264;29;20482;-82
2022/08/20 12:32:39;;;;;;;9.97;7.80;;;27.90;81.60;;;;;;4938139;29;20451;-82
2022/08/20 12:35:07;;;;;;;8.23;7.40;;;27.90;81.60;;;;;;4938110;29;20538;-81
2022/08/20 12:37:35;;;;;;;8.40;7.33;;;27.90;81.50;;;;;;4936134;29;20442;-82
2022/08/20 12:40:06;;;;;;;7.20;6.53;;;27.90;81.50;;;;;;4954492;23;20884;-82
2022/08/20 12:42:32;;;;;;;7.57;6.90;;;27.90;81.40;;;;;;4917123;29;21088;-82
2022/08/20 12:45:01;;;;;;;8.20;7.50;;;27.90;81.40;;;;;;4941614;23;20590;-82
2022/08/20 12:47:30;;;;;;;7.90;7.20;;;27.90;81.40;;;;;;4934950;29;20468;-81
2022/08/20 12:50:00;;;;;;;6.33;5.93;;;27.90;81.30;;;;;;4934520;29;20546;-82
2022/08/20 12:52:30;;;;;;;7.20;6.70;;;27.90;81.40;;;;;;4937348;29;20447;-82
2022/08/20 12:54:58;;;;;;;6.73;6.23;;;28.00;81.40;;;;;;4935749;29;20458;-81
2022/08/20 12:57:27;;;;;;;6.80;6.30;;;27.90;81.30;;;;;;4934196;29;20534;-82
2022/08/20 12:59:55;;;;;;;7.60;6.80;;;27.90;81.40;;;;;;4936778;29;20451;-82
2022/08/20 13:02:24;;;;;;;7.93;7.13;;;28.00;81.50;;;;;;4933587;29;20585;-82
2022/08/20 13:04:51;;;;;;;7.20;6.70;;;27.90;81.40;;;;;;4934715;29;20459;-82
2022/08/20 13:07:18;;;;;;;7.30;6.80;;;27.90;81.30;;;;;;4937192;29;20817;-84
2022/08/20 13:09:46;;;;;;;5.70;5.20;;;27.90;81.10;;;;;;4937416;29;20534;-84
2022/08/20 13:12:14;;;;;;;8.57;6.10;;;27.80;79.70;;;;;;4936465;29;20447;-93
2022/08/20 13:14:44;;;;;;;11.40;6.00;;;27.70;79.00;;;;;;4938165;29;20450;-91
2022/08/20 13:17:11;;;;;;;5.87;5.37;;;27.90;79.20;;;;;;4940408;29;20471;-91
2022/08/20 13:19:40;;;;;;;8.87;7.67;;;27.90;79.70;;;;;;4939904;29;20564;-93
2022/08/20 13:22:06;;;;;;;8.17;7.37;;;27.90;80.10;;;;;;4939551;29;20514;-92
2022/08/20 13:24:34;;;;;;;17.63;15.73;;;27.90;80.30;;;;;;4939790;29;20486;-90
2022/08/20 13:27:06;;;;;;;16.50;13.33;;;27.90;80.70;;;;;;4938802;29;20487;-91
2022/08/20 13:29:33;;;;;;;12.20;11.07;;;27.90;80.60;;;;;;4938806;29;20575;-90
2022/08/20 13:32:00;;;;;;;14.60;12.07;;;27.90;80.60;;;;;;4938547;29;20939;-91
2022/08/20 13:34:27;;;;;;;12.80;10.43;;;28.00;80.70;;;;;;4938584;29;20935;-91
2022/08/20 13:36:55;;;;;;;10.50;9.50;;;28.00;80.70;;;;;;4938572;29;20490;-91
2022/08/20 13:39:23;;;;;;;9.17;8.27;;;28.00;80.60;;;;;;4938770;29;20954;-91
2022/08/20 13:41:50;;;;;;;12.00;9.17;;;28.00;80.40;;;;;;4939040;29;20905;-91
2022/08/20 13:44:17;;;;;;;10.33;8.60;;;28.00;80.30;;;;;;4938923;29;20518;-91
2022/08/20 13:46:46;;;;;;;10.43;8.40;;;28.00;80.20;;;;;;4938826;29;20998;-92
2022/08/20 13:49:13;;;;;;;11.90;8.40;;;28.00;80.20;;;;;;4939059;29;20482;-91
2022/08/20 13:51:40;;;;;;;9.13;7.83;;;28.00;80.30;;;;;;4939053;29;20485;-91
2022/08/20 13:54:08;;;;;;;8.00;7.30;;;28.00;80.30;;;;;;4938841;29;20542;-91
2022/08/20 13:56:35;;;;;;;6.73;6.10;;;28.00;80.20;;;;;;4938874;29;20808;-84
2022/08/20 13:59:02;;;;;;;7.10;6.47;;;28.00;80.10;;;;;;4938682;29;20538;-84
2022/08/20 14:01:29;;;;;;;5.33;4.93;;;28.00;80.10;;;;;;4938973;29;20474;-86
2022/08/20 14:03:56;;;;;;;7.53;4.67;;;27.90;79.40;;;;;;4939025;29;20446;-90
2022/08/20 14:06:23;;;;;;;5.93;5.00;;;27.90;78.30;;;;;;4938767;29;20534;-88
2022/08/20 14:08:50;;;;;;;5.43;4.93;;;27.90;78.70;;;;;;4937753;29;20448;-86
2022/08/20 14:11:19;;;;;;;4.80;4.40;;;28.00;79.00;;;;;;4936842;29;21009;-86
2022/08/20 14:13:46;;;;;;;5.10;4.60;;;28.00;79.20;;;;;;4935071;29;20494;-88
2022/08/20 14:16:13;;;;;;;4.63;4.07;;;28.00;79.10;;;;;;4935702;29;20585;-86
2022/08/20 14:18:40;;;;;;;5.50;4.50;;;28.00;79.00;;;;;;4935444;29;20529;-85
2022/08/20 14:21:07;;;;;;;5.10;4.23;;;28.00;79.00;;;;;;4935355;29;20447;-85
2022/08/20 14:23:33;;;;;;;6.77;4.20;;;28.00;78.90;;;;;;4935331;29;20581;-86
2022/08/20 14:26:00;;;;;;;5.00;3.83;;;28.00;78.90;;;;;;4934731;29;20462;-85
2022/08/20 14:28:28;;;;;;;4.10;3.70;;;28.00;79.00;;;;;;4936102;29;20487;-88
2022/08/20 14:30:55;;;;;;;4.00;3.70;;;28.00;78.90;;;;;;4936557;29;20474;-86
2022/08/20 14:33:23;;;;;;;4.53;3.93;;;28.00;78.90;;;;;;4936238;29;20490;-86
2022/08/20 14:35:50;;;;;;;4.13;3.90;;;28.00;78.90;;;;;;4936794;29;20494;-87
2022/08/20 14:38:17;;;;;;;4.60;4.20;;;28.00;79.00;;;;;;4936958;29;20880;-85
2022/08/20 14:40:44;;;;;;;4.10;3.70;;;28.00;79.00;;;;;;4936787;29;20705;-87
2022/08/20 14:43:11;;;;;;;5.93;3.33;;;28.00;79.00;;;;;;4936259;29;20585;-85
2022/08/20 14:45:39;;;;;;;4.40;4.00;;;28.00;79.00;;;;;;4937591;29;20567;-88
2022/08/20 14:48:08;;;;;;;3.17;3.00;;;28.00;79.00;;;;;;4938026;29;20471;-87
2022/08/20 14:50:35;;;;;;;4.03;3.53;;;28.00;79.00;;;;;;4938152;29;20931;-88
2022/08/20 14:53:02;;;;;;;3.83;3.37;;;28.00;79.00;;;;;;4937652;29;20534;-86
2022/08/20 14:55:31;;;;;;;3.83;3.43;;;28.00;78.90;;;;;;4937922;29;20531;-86
2022/08/20 14:57:58;;;;;;;2.90;2.70;;;28.00;78.90;;;;;;4937746;29;20482;-86
2022/08/20 15:00:27;;;;;;;3.40;3.20;;;28.00;78.90;;;;;;4937621;29;20506;-87
2022/08/20 15:02:55;;;;;;;2.80;2.70;;;28.00;78.90;;;;;;4937492;29;20577;-85
2022/08/20 15:05:22;;;;;;;3.47;3.17;;;28.00;78.90;;;;;;4937571;29;20526;-87
2022/08/20 15:07:51;;;;;;;3.63;3.37;;;28.00;78.90;;;;;;4937436;29;20530;-86
2022/08/20 15:10:21;;;;;;;3.43;3.13;;;28.00;78.90;;;;;;4937158;29;20530;-86
2022/08/20 15:12:47;;;;;;;3.83;2.67;;;28.00;78.90;;;;;;4937573;29;20475;-86
2022/08/20 15:15:16;;;;;;;2.90;2.70;;;28.00;79.70;;;;;;4937290;29;20486;-87
2022/08/20 15:17:45;;;;;;;3.37;3.17;;;28.00;78.90;;;;;;4937446;29;20482;-91
2022/08/20 15:20:17;;;;;;;3.40;3.20;;;28.00;78.90;;;;;;4938820;29;20455;-94
2022/08/20 15:22:44;;;;;;;3.50;3.20;;;28.00;79.00;;;;;;4937588;29;20553;-90
2022/08/20 15:25:13;;;;;;;5.80;3.97;;;28.00;79.20;;;;;;4937918;29;20543;-93
2022/08/20 15:27:41;;;;;;;3.67;3.40;;;28.00;79.20;;;;;;4930484;29;20494;-91
2022/08/20 15:30:11;;;;;;;3.00;2.80;;;28.00;79.30;;;;;;4938048;29;20962;-94
2022/08/20 15:32:38;;;;;;;3.40;2.73;;;28.00;79.00;;;;;;4939060;29;20493;-90
2022/08/20 15:35:09;;;;;;;3.30;2.63;;;27.90;78.70;;;;;;4937763;29;20514;-93
2022/08/20 15:37:40;;;;;;;4.80;2.93;;;28.00;79.10;;;;;;4938463;29;20412;-93
2022/08/20 15:40:08;;;;;;;2.90;2.47;;;28.00;79.00;;;;;;4952912;29;20431;-92
2022/08/20 15:42:35;;;;;;;2.90;2.67;;;28.00;79.00;;;;;;4948218;29;20915;-94
2022/08/20 15:45:03;;;;;;;3.23;2.77;;;28.00;79.20;;;;;;4937898;29;20506;-95
2022/08/20 15:47:32;;;;;;;2.03;1.93;;;28.00;79.20;;;;;;4943522;29;20463;-85
2022/08/20 15:50:03;;;;;;;4.17;3.23;;;28.00;79.10;;;;;;4937553;29;20447;-86
2022/08/20 15:52:33;;;;;;;2.73;2.63;;;28.00;79.20;;;;;;4936828;29;20482;-86
2022/08/20 15:55:05;;;;;;;2.70;2.50;;;28.00;79.30;;;;;;4936867;29;20534;-83
2022/08/20 15:57:44;;;;;;;2.73;2.53;;;28.00;79.40;;;;;;4936449;29;20822;-81
2022/08/20 16:00:15;;;;;;;2.77;2.57;;;28.00;78.90;;;;;;4935917;29;20522;-82
2022/08/20 16:03:36;;;;;;;4.10;2.50;;;27.90;78.40;;;;;;4935456;29;20586;-82
2022/08/20 16:06:08;;;;;;;2.57;2.37;;;28.00;78.30;;;;;;4873539;29;20462;-82
2022/08/20 16:08:50;;;;;;;4.73;2.57;;;27.90;78.20;;;;;;4877560;29;20464;-92
2022/08/20 16:11:27;;;;;;;3.23;2.80;;;27.90;78.00;;;;;;4919680;29;20489;-82
2022/08/20 16:13:58;;;;;;;8.83;2.97;;;27.90;77.90;;;;;;4935655;29;20473;-82
2022/08/20 16:16:30;;;;;;;4.67;2.80;;;27.90;78.00;;;;;;4934723;29;20463;-82
2022/08/20 16:18:57;;;;;;;2.80;1.90;;;27.90;77.80;;;;;;4935448;29;20450;-81
2022/08/20 16:21:31;;;;;;;3.30;2.33;;;27.90;77.70;;;;;;4935741;29;20530;-92
2022/08/20 16:23:58;;;;;;;2.97;2.60;;;27.90;77.90;;;;;;4936945;29;20490;-86
2022/08/20 16:26:49;;;;;;;2.20;2.10;;;27.90;78.00;;;;;;4936821;29;20863;-86
2022/08/20 16:29:20;;;;;;;6.07;2.80;;;27.90;77.80;;;;;;4936306;29;20443;-85
2022/08/20 16:31:54;;;;;;;2.53;2.10;;;27.90;77.40;;;;;;4936463;29;20870;-87
2022/08/20 16:34:28;;;;;;;2.80;2.53;;;27.90;77.60;;;;;;4935982;29;20510;-87
2022/08/20 16:37:00;;;;;;;2.53;2.10;;;27.90;77.80;;;;;;4936352;29;20465;-86
2022/08/20 16:39:35;;;;;;;3.10;2.07;;;27.90;77.30;;;;;;4936268;29;20450;-89
2022/08/20 16:42:05;;;;;;;5.57;2.13;;;27.90;77.40;;;;;;4935387;29;20957;-81
2022/08/20 16:44:35;;;;;;;2.93;2.13;;;27.90;77.40;;;;;;4934967;29;20593;-87
2022/08/20 16:47:13;;;;;;;3.23;1.90;;;27.90;77.10;;;;;;4935109;29;20499;-92
2022/08/20 16:49:46;;;;;;;3.97;2.20;;;27.90;76.40;;;;;;4935405;29;20455;-84
2022/08/20 16:52:13;;;;;;;3.10;2.43;;;27.90;75.70;;;;;;4936182;29;20454;-92
2022/08/20 16:54:42;;;;;;;2.80;1.90;;;27.90;75.50;;;;;;4936538;29;20542;-92
2022/08/20 16:57:11;;;;;;;5.53;1.93;;;27.90;75.70;;;;;;4936784;29;20530;-91
2022/08/20 16:59:54;;;;;;;5.67;2.40;;;27.90;75.40;;;;;;4936552;29;21022;-91
2022/08/20 17:02:22;;;;;;;3.37;2.03;;;27.90;75.30;;;;;;4936349;29;20454;-82
2022/08/20 17:04:51;;;;;;;7.50;1.90;;;27.90;75.10;;;;;;4936266;29;20448;-81
2022/08/20 17:07:26;;;;;;;4.37;2.20;;;27.90;74.90;;;;;;4931239;29;20456;-81
2022/08/20 17:10:15;;;;;;;4.43;2.10;;;27.90;75.10;;;;;;4916962;29;20479;-85
2022/08/20 17:12:44;;;;;;;3.37;2.10;;;27.90;75.00;;;;;;4915847;29;20459;-84
2022/08/20 17:15:20;;;;;;;2.10;2.00;;;27.90;75.90;;;;;;4916924;29;20468;-84
2022/08/20 17:17:47;;;;;;;2.80;2.13;;;27.90;75.90;;;;;;4906696;29;20799;-91
2022/08/20 17:20:17;;;;;;;3.70;1.53;;;27.90;76.00;;;;;;4936067;29;20526;-86
2022/08/20 17:22:48;;;;;;;2.17;1.97;;;27.90;76.00;;;;;;4935690;29;20483;-87
2022/08/20 17:25:18;;;;;;;2.20;2.00;;;27.90;75.90;;;;;;4936355;29;20506;-87
2022/08/20 17:27:47;;;;;;;2.83;1.97;;;27.90;76.10;;;;;;4935676;29;20471;-86
2022/08/20 17:30:22;;;;;;;2.20;2.00;;;27.90;75.90;;;;;;4935671;29;20542;-86
2022/08/20 17:32:57;;;;;;;2.30;1.50;;;27.90;76.10;;;;;;4935910;29;20533;-85
2022/08/20 17:35:29;;;;;;;2.93;1.90;;;27.90;76.20;;;;;;4935719;29;20434;-86
2022/08/20 17:37:56;;;;;;;1.60;1.50;;;27.90;76.00;;;;;;4936000;29;20471;-85
2022/08/20 17:40:28;;;;;;;2.80;1.97;;;27.90;75.90;;;;;;4935654;29;20535;-86
2022/08/20 17:43:00;;;;;;;4.07;2.10;;;27.90;75.90;;;;;;4935739;29;20919;-86
2022/08/20 17:45:31;;;;;;;1.90;1.60;;;27.90;75.90;;;;;;4954972;29;20462;-86
2022/08/20 17:48:00;;;;;;;4.40;1.63;;;27.90;75.80;;;;;;4955365;29;20431;-86
2022/08/20 17:50:32;;;;;;;3.10;1.87;;;27.90;75.70;;;;;;4955132;29;20852;-86
2022/08/20 17:53:08;;;;;;;1.70;1.53;;;27.90;75.80;;;;;;4955105;29;20525;-89
2022/08/20 17:55:36;;;;;;;2.13;1.93;;;27.90;75.70;;;;;;4955145;29;20528;-85
2022/08/20 17:58:10;;;;;;;2.40;1.97;;;27.90;75.60;;;;;;4955077;29;20442;-86
2022/08/20 18:00:37;;;;;;;2.43;1.87;;;28.00;75.70;;;;;;4957039;28;20442;-86
2022/08/20 18:03:15;;;;;;;3.37;2.50;;;27.90;75.60;;;;;;4958250;29;20506;-85
2022/08/20 18:05:43;;;;;;;4.03;2.10;;;27.90;75.60;;;;;;4958205;29;20469;-86
2022/08/20 18:08:24;;;;;;;3.07;1.87;;;27.90;75.60;;;;;;4958101;29;20541;-89
2022/08/20 18:10:59;;;;;;;1.97;1.77;;;27.90;75.50;;;;;;4958293;29;20438;-87
2022/08/20 18:13:45;;;;;;;1.57;1.47;;;27.90;75.60;;;;;;4958311;29;20485;-86
2022/08/20 18:16:30;;;;;;;2.70;2.00;;;27.90;75.50;;;;;;4958245;29;20916;-86
2022/08/20 18:19:02;;;;;;;2.70;1.90;;;27.90;75.40;;;;;;4958034;29;20493;-87
2022/08/20 18:21:55;;;;;;;1.50;1.40;;;27.90;75.40;;;;;;4957818;29;20445;-86
2022/08/20 18:24:27;;;;;;;3.47;2.17;;;27.90;75.20;;;;;;4957777;29;21053;-88
2022/08/20 18:26:59;;;;;;;2.10;1.90;;;27.90;75.40;;;;;;4959074;29;20453;-87
2022/08/20 18:29:31;;;;;;;1.60;1.40;;;27.90;76.20;;;;;;4957669;29;20443;-86
2022/08/20 18:32:00;;;;;;;1.97;1.87;;;27.90;75.30;;;;;;4957668;29;20470;-87
2022/08/20 18:34:36;;;;;;;2.37;2.17;;;27.90;75.30;;;;;;4957605;29;20442;-86
2022/08/20 18:37:05;;;;;;;2.47;1.47;;;27.90;75.20;;;;;;4957617;29;20438;-86
2022/08/20 18:39:34;;;;;;;2.07;1.50;;;27.90;75.20;;;;;;4957666;29;20517;-87
2022/08/20 18:42:05;;;;;;;2.23;1.60;;;27.90;75.10;;;;;;4957616;29;20545;-87
2022/08/20 18:44:41;;;;;;;1.63;1.53;;;27.90;75.00;;;;;;4957344;29;20505;-90
2022/08/20 18:47:20;;;;;;;1.70;1.60;;;27.90;74.80;;;;;;4957356;29;20470;-87
2022/08/20 18:49:58;;;;;;;1.93;1.70;;;27.90;74.70;;;;;;4957394;29;20964;-86
2022/08/20 18:52:28;;;;;;;1.53;1.30;;;27.90;74.90;;;;;;4957451;29;20934;-87
2022/08/20 18:54:57;;;;;;;1.93;1.40;;;27.90;74.90;;;;;;4957174;29;20460;-87
2022/08/20 18:57:27;;;;;;;1.90;1.80;;;27.90;74.80;;;;;;4957363;29;20449;-87
2022/08/20 19:00:02;;;;;;;1.93;1.77;;;27.90;74.90;;;;;;4957496;29;20537;-86
2022/08/20 19:02:32;;;;;;;2.10;1.90;;;27.90;74.80;;;;;;4957165;29;20477;-86
2022/08/20 19:05:01;;;;;;;2.00;1.80;;;27.90;74.80;;;;;;4957198;29;20489;-86
2022/08/20 19:07:33;;;;;;;2.03;1.30;;;27.90;74.80;;;;;;4956942;29;20458;-87
2022/08/20 19:10:24;;;;;;;1.90;1.70;;;27.90;74.80;;;;;;4956940;29;20476;-86
2022/08/20 19:13:23;;;;;;;1.63;1.43;;;27.90;74.70;;;;;;4956193;29;20470;-86
2022/08/20 19:15:58;;;;;;;2.73;1.40;;;27.90;74.70;;;;;;4931753;29;20549;-87
2022/08/20 19:18:32;;;;;;;1.60;1.50;;;27.90;74.70;;;;;;4956750;29;20541;-86
2022/08/20 19:21:01;;;;;;;1.40;1.30;;;27.90;74.60;;;;;;4956740;29;20922;-86
2022/08/20 19:23:37;;;;;;;1.70;1.60;;;27.80;74.40;;;;;;4956575;29;20573;-87
2022/08/20 19:26:10;;;;;;;2.30;1.43;;;27.90;74.50;;;;;;4956773;29;20442;-86
2022/08/20 19:28:42;;;;;;;1.43;1.33;;;27.90;74.40;;;;;;4956706;29;20957;-87
2022/08/20 19:31:14;;;;;;;1.87;1.77;;;27.90;74.30;;;;;;4956555;29;20430;-87
2022/08/20 19:33:43;;;;;;;1.60;1.50;;;27.90;74.30;;;;;;4956786;29;20438;-87
2022/08/20 19:36:17;;;;;;;1.40;1.30;;;27.90;74.20;;;;;;4956444;29;20457;-87
2022/08/20 19:38:46;;;;;;;2.33;1.60;;;27.90;74.20;;;;;;4956611;29;20449;-87
2022/08/20 19:41:18;;;;;;;1.67;1.53;;;27.80;74.10;;;;;;4956327;29;20534;-86
2022/08/20 19:43:45;;;;;;;1.60;1.33;;;27.90;74.10;;;;;;4956053;29;21008;-86
2022/08/20 19:46:16;;;;;;;2.00;1.40;;;27.80;74.00;;;;;;4956370;29;20482;-86
2022/08/20 19:48:52;;;;;;;1.40;1.23;;;27.80;73.90;;;;;;4956200;29;20481;-89
2022/08/20 19:51:25;;;;;;;1.60;1.50;;;27.80;73.90;;;;;;4956477;29;20430;-87
2022/08/20 19:53:52;;;;;;;1.70;1.60;;;27.90;73.80;;;;;;4956321;29;20458;-86
2022/08/20 19:56:21;;;;;;;2.20;2.00;;;27.80;73.80;;;;;;4956338;29;21021;-86
2022/08/20 19:58:59;;;;;;;1.40;1.30;;;27.80;73.90;;;;;;4956197;29;20450;-87
2022/08/20 20:01:28;;;;;;;1.53;1.17;;;27.90;73.80;;;;;;4956088;29;20823;-87
2022/08/20 20:03:58;;;;;;;1.60;1.50;;;27.80;73.80;;;;;;4955763;29;20528;-86
2022/08/20 20:06:26;;;;;;;1.40;1.30;;;27.80;73.70;;;;;;4955989;29;20501;-86
2022/08/20 20:08:58;;;;;;;1.40;1.30;;;27.80;73.60;;;;;;4956081;29;20474;-87
2022/08/20 20:11:29;;;;;;;1.47;1.37;;;27.80;73.60;;;;;;4955804;29;21005;-87
2022/08/20 20:14:01;;;;;;;1.70;1.60;;;27.80;73.60;;;;;;4956030;29;20462;-87
2022/08/20 20:16:32;;;;;;;1.80;1.70;;;27.80;73.60;;;;;;4955909;29;20549;-87
2022/08/20 20:18:59;;;;;;;1.53;1.43;;;27.80;73.60;;;;;;4955911;29;20525;-87
2022/08/20 20:21:38;;;;;;;1.60;1.50;;;27.80;73.60;;;;;;4955898;29;20523;-87
2022/08/20 20:24:05;;;;;;;1.60;1.50;;;27.80;73.50;;;;;;4955435;28;21082;-87
2022/08/20 20:26:35;;;;;;;1.50;1.37;;;27.80;73.60;;;;;;4955918;29;20490;-87
2022/08/20 20:29:07;;;;;;;1.70;1.60;;;27.80;73.60;;;;;;4955757;29;20798;-89
2022/08/20 20:31:41;;;;;;;1.40;1.30;;;27.80;73.50;;;;;;4955803;29;20447;-87
2022/08/20 20:34:13;;;;;;;1.90;1.80;;;27.80;73.50;;;;;;4955661;29;20486;-87